Time;durP1;ratioP1;P1;durP2;ratioP2;P2;SDS_P1;SDS_P2;PMS_P1;PMS_P2;Temp;Humidity;BMP_temperature;BMP_pressure;BME280_temperature;BME280_humidity;BME280_pressure;Samples;Min_cycle;Max_cycle;Signal;HPM_P1;HPM_P2
2022/04/22 00:02:24;;;;;;;;;;;;;;;8.06;73.74;99706.81;5030220;28;19929;-60
2022/04/22 00:04:50;;;;;;;;;;;;;;;8.04;73.65;99698.28;5029909;28;19932;-60
2022/04/22 00:07:15;;;;;;;;;;;;;;;8.03;73.92;99693.19;5031236;28;20024;-60
2022/04/22 00:09:41;;;;;;;;;;;;;;;8.03;73.97;99690.56;5031378;28;19990;-60
2022/04/22 00:12:07;;;;;;;;;;;;;;;7.96;74.20;99699.31;5031549;28;19925;-59
2022/04/22 00:14:32;;;;;;;;;;;;;;;7.97;74.17;99698.31;5031184;28;20453;-61
2022/04/22 00:16:58;;;;;;;;;;;;;;;8.00;74.05;99694.47;5030336;28;19988;-60
2022/04/22 00:19:23;;;;;;;;;;;;;;;8.07;74.00;99694.41;5030253;28;19925;-61
2022/04/22 00:21:49;;;;;;;;;;;;;;;8.04;73.94;99689.56;5031310;28;19921;-60
2022/04/22 00:24:16;;;;;;;;;;;;;;;7.96;74.31;99696.69;5031569;28;19929;-61
2022/04/22 00:26:41;;;;;;;;;;;;;;;7.91;74.67;99693.91;5030837;28;19925;-61
2022/04/22 00:29:07;;;;;;;;;;;;;;;7.95;74.54;99697.72;5031775;28;19935;-61
2022/04/22 00:31:33;;;;;;;;;;;;;;;8.05;74.03;99694.59;5031457;28;20260;-61
2022/04/22 00:33:58;;;;;;;;;;;;;;;8.03;74.26;99690.56;5031422;28;20298;-61
2022/04/22 00:36:24;;;;;;;;;;;;;;;7.93;74.67;99686.56;5029295;28;19948;-60
2022/04/22 00:38:49;;;;;;;;;;;;;;;7.87;74.65;99695.31;5031339;28;19949;-60
2022/04/22 00:41:14;;;;;;;;;;;;;;;7.92;74.72;99692.06;5031074;28;20378;-62
2022/04/22 00:43:44;;;;;;;;;;;;;;;8.03;74.40;99693.19;5030993;28;19995;-61
2022/04/22 00:46:10;;;;;;;;;;;;;;;8.13;74.05;99688.28;5034367;28;19925;-60
2022/04/22 00:48:35;;;;;;;;;;;;;;;8.19;73.65;99695.34;5035035;28;19929;-62
2022/04/22 00:51:02;;;;;;;;;;;;;;;8.26;73.40;99688.16;5017242;28;19925;-61
2022/04/22 00:53:27;;;;;;;;;;;;;;;8.27;73.25;99684.50;5033371;28;19956;-60
2022/04/22 00:55:53;;;;;;;;;;;;;;;8.28;73.96;99687.97;5033250;28;20018;-60
2022/04/22 00:58:18;;;;;;;;;;;;;;;8.30;73.29;99692.00;5033467;28;20059;-60
2022/04/22 01:00:44;;;;;;;;;;;;;;;8.28;73.42;99682.69;5034670;28;19925;-60
2022/04/22 01:03:10;;;;;;;;;;;;;;;8.27;73.24;99687.16;5034748;28;20301;-60
2022/04/22 01:11:04;;;;;;;;;;;;;;;8.32;73.13;99678.56;5018977;28;19925;-59
2022/04/22 01:13:29;;;;;;;;;;;;;;;8.32;73.04;99674.09;5033333;28;19929;-59
2022/04/22 01:15:56;;;;;;;;;;;;;;;8.34;73.31;99679.16;5034441;28;19925;-61
2022/04/22 01:18:21;;;;;;;;;;;;;;;8.33;73.08;99673.09;5034511;28;20289;-59
2022/04/22 01:20:47;;;;;;;;;;;;;;;8.33;73.28;99669.63;5033076;28;19924;-60
2022/04/22 01:23:13;;;;;;;;;;;;;;;8.34;72.72;99673.88;5033996;28;20289;-60
2022/04/22 01:25:39;;;;;;;;;;;;;;;8.32;73.22;99668.81;5034167;28;19932;-60
2022/04/22 01:28:04;;;;;;;;;;;;;;;8.30;73.16;99664.78;5032999;28;20333;-60
2022/04/22 01:30:30;;;;;;;;;;;;;;;8.24;73.55;99666.47;5034183;28;19925;-61
2022/04/22 01:32:56;;;;;;;;;;;;;;;8.24;73.45;99671.75;5033826;28;20028;-61
2022/04/22 01:35:22;;;;;;;;;;;;;;;8.20;73.54;99668.69;5034115;28;19925;-61
2022/04/22 01:37:47;;;;;;;;;;;;;;;8.14;73.63;99674.03;5032576;28;20303;-60
2022/04/22 01:40:13;;;;;;;;;;;;;;;8.03;74.05;99672.06;5033996;28;19958;-59
2022/04/22 01:42:39;;;;;;;;;;;;;;;7.92;74.51;99678.88;5031844;28;20024;-60
2022/04/22 01:45:05;;;;;;;;;;;;;;;7.68;75.45;99677.78;5033724;28;19925;-59
2022/04/22 01:47:31;;;;;;;;;;;;;;;7.61;75.96;99674.34;5033994;28;19929;-60
2022/04/22 01:49:56;;;;;;;;;;;;;;;7.54;76.07;99678.88;5031985;28;19925;-61
2022/04/22 01:52:22;;;;;;;;;;;;;;;7.61;76.15;99685.72;5032166;28;19940;-61
2022/04/22 01:54:51;;;;;;;;;;;;;;;7.61;75.91;99680.44;5031541;28;19960;-61
2022/04/22 01:57:20;;;;;;;;;;;;;;;7.62;75.70;99673.34;5032073;28;19929;-61
2022/04/22 01:59:46;;;;;;;;;;;;;;;7.64;75.77;99673.94;5033473;28;20016;-60
2022/04/22 02:02:12;;;;;;;;;;;;;;;7.63;75.46;99678.41;5031902;28;20386;-61
2022/04/22 02:04:38;;;;;;;;;;;;;;;7.59;75.92;99677.22;5032866;28;20028;-61
2022/04/22 02:07:04;;;;;;;;;;;;;;;7.50;76.13;99689.03;5031822;28;19925;-61
2022/04/22 02:09:29;;;;;;;;;;;;;;;7.48;76.37;99675.25;5031870;28;19925;-62
2022/04/22 02:11:56;;;;;;;;;;;;;;;7.47;76.23;99686.78;5032614;28;20382;-60
2022/04/22 02:14:22;;;;;;;;;;;;;;;7.45;76.52;99678.28;5033342;28;19925;-62
2022/04/22 02:16:47;;;;;;;;;;;;;;;7.49;75.93;99677.66;5032596;28;20283;-61
2022/04/22 02:19:13;;;;;;;;;;;;;;;7.53;76.11;99682.50;5033347;28;19984;-61
2022/04/22 02:21:38;;;;;;;;;;;;;;;7.49;75.99;99677.66;5032988;28;20019;-60
2022/04/22 02:24:04;;;;;;;;;;;;;;;7.48;76.07;99678.69;5031290;28;19929;-60
2022/04/22 02:28:31;;;;;;;;;;;;;;;7.41;76.54;99680.56;5031785;28;19924;-61
2022/04/22 02:29:16;;;;;;;;;;;;;;;7.49;76.33;99676.84;5032857;28;20019;-61
2022/04/22 02:31:41;;;;;;;;;;;;;;;7.54;75.86;99677.03;5032288;28;19925;-60
2022/04/22 02:34:07;;;;;;;;;;;;;;;7.63;75.71;99674.97;5033235;28;19940;-60
2022/04/22 02:36:33;;;;;;;;;;;;;;;7.68;75.39;99673.31;5031465;28;19929;-61
2022/04/22 02:38:58;;;;;;;;;;;;;;;7.73;75.13;99677.94;5033102;28;20384;-61
2022/04/22 02:46:52;;;;;;;;;;;;;;;7.48;75.86;99672.59;5032283;28;19925;-60
2022/04/22 02:49:17;;;;;;;;;;;;;;;7.49;75.55;99682.94;5031577;28;19947;-60
2022/04/22 02:51:43;;;;;;;;;;;;;;;7.46;76.28;99685.19;5032062;28;19928;-60
2022/04/22 02:54:09;;;;;;;;;;;;;;;7.48;76.16;99681.31;5032555;28;19975;-60
2022/04/22 02:56:35;;;;;;;;;;;;;;;7.43;76.25;99678.50;5032406;28;20455;-62
2022/04/22 02:59:00;;;;;;;;;;;;;;;7.42;76.20;99690.06;5032732;28;19936;-60
2022/04/22 03:01:26;;;;;;;;;;;;;;;7.42;76.03;99676.88;5031899;28;20393;-61
2022/04/22 03:03:51;;;;;;;;;;;;;;;7.44;76.39;99672.22;5032550;28;20023;-61
2022/04/22 03:06:17;;;;;;;;;;;;;;;7.44;76.25;99681.94;5031612;28;19925;-62
2022/04/22 03:08:43;;;;;;;;;;;;;;;7.41;76.19;99680.56;5032530;28;19933;-59
2022/04/22 03:11:08;;;;;;;;;;;;;;;7.42;76.36;99682.16;5031584;28;19932;-61
2022/04/22 03:13:34;;;;;;;;;;;;;;;7.39;76.25;99677.31;5032053;28;19929;-60
2022/04/22 03:16:00;;;;;;;;;;;;;;;7.38;76.47;99683.59;5030763;28;20303;-61
2022/04/22 03:18:25;;;;;;;;;;;;;;;7.42;76.66;99686.63;5030907;28;19929;-61
2022/04/22 03:20:51;;;;;;;;;;;;;;;7.42;76.04;99681.34;5031391;28;20386;-60
2022/04/22 03:23:16;;;;;;;;;;;;;;;7.36;76.15;99684.84;5030649;28;20043;-62
2022/04/22 03:25:42;;;;;;;;;;;;;;;7.39;76.28;99684.41;5031769;28;20014;-61
2022/04/22 03:28:07;;;;;;;;;;;;;;;7.38;76.59;99682.78;5030683;28;19933;-61
2022/04/22 03:30:34;;;;;;;;;;;;;;;7.40;75.96;99686.81;5031867;28;19944;-61
2022/04/22 03:33:01;;;;;;;;;;;;;;;7.36;76.37;99685.63;5032117;28;19929;-60
2022/04/22 03:35:27;;;;;;;;;;;;;;;7.41;75.97;99685.81;5030856;28;19960;-62
2022/04/22 03:37:52;;;;;;;;;;;;;;;7.46;76.01;99679.91;5031880;28;20030;-61
2022/04/22 03:40:18;;;;;;;;;;;;;;;7.45;75.91;99683.56;5029996;28;20355;-61
2022/04/22 03:42:43;;;;;;;;;;;;;;;7.49;76.02;99682.13;5031756;28;19930;-60
2022/04/22 03:45:09;;;;;;;;;;;;;;;7.54;75.95;99684.16;5032072;28;19947;-61
2022/04/22 03:47:34;;;;;;;;;;;;;;;7.55;75.54;99678.66;5031812;28;19929;-60
2022/04/22 03:50:00;;;;;;;;;;;;;;;7.64;75.59;99681.84;5030168;28;20421;-61
2022/04/22 03:52:25;;;;;;;;;;;;;;;7.68;75.46;99677.78;5031862;28;19929;-61
2022/04/22 03:54:51;;;;;;;;;;;;;;;7.71;75.12;99685.28;5031790;28;20350;-63
2022/04/22 04:00:01;;;;;;;;;;;;;;;7.92;74.68;99692.06;5031175;28;19925;-60
2022/04/22 04:02:28;;;;;;;;;;;;;;;8.02;74.30;99691.59;5029956;28;20019;-62
2022/04/22 04:04:53;;;;;;;;;;;;;;;8.08;73.88;99694.19;5031237;28;19925;-62
2022/04/22 04:07:19;;;;;;;;;;;;;;;8.03;73.90;99688.75;5031167;28;19952;-62
2022/04/22 04:17:57;;;;;;;;;;;;;;;8.03;74.51;99690.56;5031821;28;19929;-61
2022/04/22 04:23:15;;;;;;;;;;;;;;;8.01;75.32;99692.63;5015531;28;20388;-61
2022/04/22 04:25:47;;;;;;;;;;;;;;;8.02;75.05;99700.31;5015263;28;19950;-60
2022/04/22 04:28:13;;;;;;;;;;;;;;;7.99;75.14;99692.00;5015524;28;19957;-61
2022/04/22 04:30:39;;;;;;;;;;;;;;;7.96;74.98;99694.03;5026505;28;19926;-61
2022/04/22 04:33:05;;;;;;;;;;;;;;;7.98;75.20;99685.94;5033571;28;20056;-61
2022/04/22 04:35:31;;;;;;;;;;;;;;;7.95;75.13;99689.81;5016847;28;19925;-60
2022/04/22 04:37:56;;;;;;;;;;;;;;;7.96;75.12;99693.25;5033686;28;19928;-61
2022/04/22 04:40:22;;;;;;;;;;;;;;;7.94;75.13;99690.00;5033907;28;19925;-61
2022/04/22 04:42:47;;;;;;;;;;;;;;;7.93;75.12;99694.47;5032918;28;19929;-62
2022/04/22 04:45:13;;;;;;;;;;;;;;;7.90;74.91;99694.09;5034397;28;19929;-60
2022/04/22 04:47:40;;;;;;;;;;;;;;;7.85;75.48;99691.28;5033060;28;20025;-60
2022/04/22 04:50:06;;;;;;;;;;;;;;;7.81;75.60;99690.91;5034710;28;19972;-59
2022/04/22 04:52:33;;;;;;;;;;;;;;;7.81;75.61;99692.72;5034222;28;20015;-61
2022/04/22 04:54:58;;;;;;;;;;;;;;;7.78;75.58;99691.31;5034293;28;20265;-61
2022/04/22 04:57:24;;;;;;;;;;;;;;;7.78;75.73;99693.16;5034209;28;19929;-59
2022/04/22 04:59:50;;;;;;;;;;;;;;;7.77;75.79;99699.47;5034299;28;19925;-62
2022/04/22 05:02:16;;;;;;;;;;;;;;;7.77;76.13;99694.19;5034249;28;20024;-61
2022/04/22 05:04:41;;;;;;;;;;;;;;;7.89;75.85;99692.50;5034339;28;19932;-63
2022/04/22 05:07:07;;;;;;;;;;;;;;;7.93;75.36;99696.31;5034021;28;19932;-61
2022/04/22 05:09:32;;;;;;;;;;;;;;;8.03;75.09;99690.56;5032860;28;19987;-61
2022/04/22 05:11:58;;;;;;;;;;;;;;;8.08;74.73;99693.38;5032705;28;19921;-61
2022/04/22 05:14:26;;;;;;;;;;;;;;;8.09;75.14;99684.41;5034441;28;20472;-62
2022/04/22 05:16:54;;;;;;;;;;;;;;;8.20;74.39;99696.94;5032936;28;19921;-62
2022/04/22 05:19:21;;;;;;;;;;;;;;;8.33;73.96;99696.06;5032634;28;20394;-61
2022/04/22 05:21:46;;;;;;;;;;;;;;;8.36;72.99;99696.44;5033167;28;20024;-61
2022/04/22 05:24:12;;;;;;;;;;;;;;;8.41;73.11;99699.28;5032562;28;20032;-61
2022/04/22 05:26:38;;;;;;;;;;;;;;;8.47;72.14;99699.41;5032870;28;19925;-63
2022/04/22 05:29:04;;;;;;;;;;;;;;;8.42;72.19;99702.72;5033945;28;20070;-63
2022/04/22 05:34:13;;;;;;;;;;;;;;;8.57;71.45;99700.56;5034224;28;19929;-61
2022/04/22 05:36:39;;;;;;;;;;;;;;;8.69;71.06;99700.66;5032333;28;19948;-61
2022/04/22 05:39:08;;;;;;;;;;;;;;;8.91;70.09;99695.75;5033956;28;19929;-61
2022/04/22 05:41:35;;;;;;;;;;;;;;;8.97;69.66;99694.06;5032446;28;19947;-60
2022/04/22 05:44:03;;;;;;;;;;;;;;;9.12;69.13;99696.34;5034034;28;19929;-62
2022/04/22 05:46:29;;;;;;;;;;;;;;;9.24;69.03;99695.44;5033432;28;20390;-61
2022/04/22 05:48:55;;;;;;;;;;;;;;;9.27;69.23;99691.53;5015745;28;20019;-62
2022/04/22 05:51:21;;;;;;;;;;;;;;;9.27;69.38;99694.97;5031897;28;20442;-61
2022/04/22 05:53:48;;;;;;;;;;;;;;;9.36;68.69;99695.50;5033274;28;19933;-61
2022/04/22 05:56:13;;;;;;;;;;;;;;;9.21;68.61;99695.06;5033120;28;19929;-62
2022/04/22 05:58:39;;;;;;;;;;;;;;;9.14;67.43;99683.72;5032031;28;19929;-63
2022/04/22 06:01:04;;;;;;;;;;;;;;;9.08;68.92;99690.72;5032888;28;19925;-63
2022/04/22 06:03:30;;;;;;;;;;;;;;;9.09;67.43;99685.22;5033254;28;19936;-64
2022/04/22 06:05:56;;;;;;;;;;;;;;;9.17;67.50;99684.09;5031686;28;19925;-64
2022/04/22 06:11:05;;;;;;;;;;;;;;;9.27;67.22;99688.88;5032049;28;19971;-61
2022/04/22 06:13:31;;;;;;;;;;;;;;;9.23;66.27;99691.16;5031936;28;20333;-63
2022/04/22 06:15:57;;;;;;;;;;;;;;;9.14;66.99;99691.66;5031230;28;19960;-61
2022/04/22 06:18:23;;;;;;;;;;;;;;;9.10;66.59;99700.03;5030800;28;20321;-61
2022/04/22 06:20:50;;;;;;;;;;;;;;;9.12;67.25;99697.19;5031818;28;20023;-62
2022/04/22 06:23:15;;;;;;;;;;;;;;;9.11;66.40;99695.56;5031817;28;19956;-63
2022/04/22 06:25:45;;;;;;;;;;;;;;;9.05;66.85;99693.78;4996721;28;19948;-59
2022/04/22 06:28:12;;;;;;;;;;;;;;;9.02;67.62;99697.69;5015317;28;20422;-60
2022/04/22 06:30:38;;;;;;;;;;;;;;;9.08;67.11;99693.34;5014080;28;19925;-62
2022/04/22 06:33:05;;;;;;;;;;;;;;;9.04;66.97;99698.28;5013986;28;19937;-59
2022/04/22 06:35:31;;;;;;;;;;;;;;;9.06;66.99;99692.78;5030442;28;19932;-62
2022/04/22 06:37:57;;;;;;;;;;;;;;;9.06;67.24;99690.94;5008741;28;19929;-62
2022/04/22 06:45:52;;;;;;;;;;;;;;;9.37;65.97;99685.72;5025927;28;19929;-61
2022/04/22 06:48:18;;;;;;;;;;;;;;;9.51;65.71;99692.47;5021034;28;19991;-60
2022/04/22 06:50:47;;;;;;;;;;;;;;;9.58;65.07;99685.22;5025270;28;19973;-60
2022/04/22 06:53:17;;;;;;;;;;;;;;;9.53;65.72;99683.28;5031392;28;19933;-61
2022/04/22 06:55:43;;;;;;;;;;;;;;;9.57;65.33;99688.94;5029451;28;19972;-61
2022/04/22 06:58:10;;;;;;;;;;;;;;;9.56;65.24;99692.63;5030273;28;19976;-63
2022/04/22 07:00:36;;;;;;;;;;;;;;;9.62;65.24;99685.59;5029784;28;20020;-65
2022/04/22 07:03:01;;;;;;;;;;;;;;;9.66;65.46;99681.47;5030289;28;20023;-61
2022/04/22 07:05:27;;;;;;;;;;;;;;;9.64;65.38;99686.19;5030276;28;19934;-62
2022/04/22 07:07:54;;;;;;;;;;;;;;;9.72;64.44;99694.63;5028607;28;19933;-65
2022/04/22 07:10:22;;;;;;;;;;;;;;;9.73;64.32;99693.59;5028546;28;20047;-62
2022/04/22 07:12:48;;;;;;;;;;;;;;;9.67;65.15;99691.84;5030236;28;19929;-61
2022/04/22 07:15:13;;;;;;;;;;;;;;;9.73;65.41;99684.84;5031532;28;20023;-62
2022/04/22 07:17:40;;;;;;;;;;;;;;;9.82;64.92;99682.69;5031294;28;19936;-61
2022/04/22 07:20:09;;;;;;;;;;;;;;;10.04;63.53;99688.28;5015636;28;19925;-62
2022/04/22 07:22:38;;;;;;;;;;;;;;;10.13;63.52;99685.09;5011962;28;19937;-61
2022/04/22 07:25:05;;;;;;;;;;;;;;;10.14;63.29;99686.69;5031340;28;19987;-61
2022/04/22 07:27:31;;;;;;;;;;;;;;;10.19;63.33;99688.69;5031460;28;19929;-63
2022/04/22 07:29:59;;;;;;;;;;;;;;;10.30;63.80;99679.19;5013135;28;20298;-63
2022/04/22 07:32:28;;;;;;;;;;;;;;;10.34;62.89;99675.81;5029853;28;19936;-62
2022/04/22 07:34:56;;;;;;;;;;;;;;;10.35;62.47;99681.94;5030433;28;19983;-61
2022/04/22 07:37:22;;;;;;;;;;;;;;;10.37;63.00;99679.88;5030205;28;20410;-61
2022/04/22 07:39:48;;;;;;;;;;;;;;;10.39;62.92;99680.44;5029503;28;19925;-63
2022/04/22 07:42:19;;;;;;;;;;;;;;;10.35;62.54;99679.28;5030819;28;20023;-63
2022/04/22 07:47:33;;;;;;;;;;;;;;;10.23;63.60;99672.09;5029055;28;19935;-62
2022/04/22 07:49:58;;;;;;;;;;;;;;;10.31;63.98;99684.22;5030692;28;19925;-61
2022/04/22 07:52:24;;;;;;;;;;;;;;;10.27;63.35;99672.47;5030647;28;19929;-60
2022/04/22 07:54:49;;;;;;;;;;;;;;;10.34;63.90;99675.03;5033914;28;20888;-59
2022/04/22 07:57:15;;;;;;;;;;;;;;;10.34;63.15;99675.03;5033068;28;20512;-61
2022/04/22 07:59:42;;;;;;;;;;;;;;;10.27;63.65;99677.78;5033871;28;20357;-61
2022/04/22 08:02:08;;;;;;;;;;;;;;;10.16;63.48;99683.84;5034261;28;19968;-60
2022/04/22 08:04:34;;;;;;;;;;;;;;;10.19;63.47;99670.13;5033761;28;20006;-61
2022/04/22 08:07:01;;;;;;;;;;;;;;;10.17;63.55;99665.03;5034075;28;19925;-61
2022/04/22 08:09:26;;;;;;;;;;;;;;;10.10;63.04;99668.84;5034348;28;20359;-65
2022/04/22 08:11:52;;;;;;;;;;;;;;;10.06;63.13;99667.66;5034968;28;19981;-62
2022/04/22 08:14:17;;;;;;;;;;;;;;;10.19;63.19;99662.19;5016874;28;20305;-62
2022/04/22 08:16:43;;;;;;;;;;;;;;;10.33;61.80;99654.88;5032581;28;19936;-61
2022/04/22 08:19:09;;;;;;;;;;;;;;;10.52;62.15;99650.25;5029592;28;19929;-62
2022/04/22 08:21:35;;;;;;;;;;;;;;;10.74;61.91;99651.31;5034390;28;19931;-61
2022/04/22 08:24:01;;;;;;;;;;;;;;;10.86;60.81;99654.75;5034559;28;19999;-61
2022/04/22 08:26:26;;;;;;;;;;;;;;;10.97;61.06;99653.13;5018651;28;19926;-62
2022/04/22 08:28:52;;;;;;;;;;;;;;;11.16;60.10;99651.13;5018367;28;19937;-63
2022/04/22 08:31:17;;;;;;;;;;;;;;;11.18;59.87;99651.69;5033462;28;19929;-63
2022/04/22 08:33:45;;;;;;;;;;;;;;;11.18;60.04;99654.34;5032662;28;20279;-61
2022/04/22 08:36:11;;;;;;;;;;;;;;;11.09;59.83;99645.16;5031615;28;19933;-62
2022/04/22 08:38:37;;;;;;;;;;;;;;;10.99;60.33;99653.69;5032210;28;20421;-63
2022/04/22 08:41:02;;;;;;;;;;;;;;;10.99;60.91;99651.03;5032204;28;19965;-65
2022/04/22 08:43:29;;;;;;;;;;;;;;;10.96;60.36;99648.84;5033564;28;20353;-63
2022/04/22 08:45:56;;;;;;;;;;;;;;;10.94;60.38;99650.91;4999633;28;20015;-64
2022/04/22 08:51:08;;;;;;;;;;;;;;;10.75;61.04;99644.94;5034226;28;19924;-62
2022/04/22 08:53:33;;;;;;;;;;;;;;;10.77;60.75;99642.09;5032767;28;19933;-63
2022/04/22 08:56:01;;;;;;;;;;;;;;;10.76;60.44;99645.75;5030315;28;19932;-60
2022/04/22 08:58:27;;;;;;;;;;;;;;;10.76;60.38;99643.91;5030609;28;19936;-63
2022/04/22 09:00:54;;;;;;;;;;;;;;;10.85;61.15;99639.06;5032597;28;19929;-62
2022/04/22 09:03:20;;;;;;;;;;;;;;;10.86;60.25;99646.00;5031917;28;19925;-61
2022/04/22 09:05:45;;;;;;;;;;;;;;;10.90;60.82;99639.97;5032677;28;19925;-62
2022/04/22 09:08:11;;;;;;;;;;;;;;;10.94;59.87;99642.16;5031977;28;19936;-61
2022/04/22 09:10:38;;;;;;;;;;;;;;;10.98;60.09;99638.81;5032371;28;19925;-62
2022/04/22 09:13:09;;;;;;;;;;;;;;;11.06;60.01;99634.97;5033604;28;19996;-62
2022/04/22 09:15:35;;;;;;;;;;;;;;;11.08;59.73;99635.56;5031624;28;19925;-61
2022/04/22 09:18:11;;;;;;;;;;;;;;;11.18;59.92;99634.94;5031880;28;20397;-63
2022/04/22 09:20:36;;;;;;;;;;;;;;;11.30;59.08;99635.75;5031883;28;19925;-64
2022/04/22 09:23:05;;;;;;;;;;;;;;;11.39;58.54;99628.22;5032152;28;19936;-61
2022/04/22 09:25:32;;;;;;;;;;;;;;;11.38;59.09;99635.34;5015482;28;19925;-61
2022/04/22 09:28:07;;;;;;;;;;;;;;;11.41;59.21;99629.56;5029668;28;19929;-64
2022/04/22 09:30:33;;;;;;;;;;;;;;;11.42;59.11;99625.88;5025677;28;20429;-64
2022/04/22 09:32:58;;;;;;;;;;;;;;;11.45;58.49;99625.41;5030244;28;20026;-62
2022/04/22 09:35:26;;;;;;;;;;;;;;;11.34;59.24;99624.41;5031077;28;20072;-63
2022/04/22 09:43:39;;;;;;;;;;;;;;;11.17;59.99;99623.53;5020984;28;19929;-65
2022/04/22 09:46:05;;;;;;;;;;;;;;;11.27;59.25;99620.28;5031188;28;19940;-64
2022/04/22 09:48:41;;;;;;;;;;;;;;;11.34;58.86;99628.91;5024381;28;19975;-65
2022/04/22 09:51:18;;;;;;;;;;;;;;;11.34;59.05;99621.75;5032885;28;19925;-66
2022/04/22 09:53:44;;;;;;;;;;;;;;;11.39;58.80;99626.38;5031988;28;19933;-65
2022/04/22 09:56:10;;;;;;;;;;;;;;;11.54;58.45;99625.84;5033385;28;20023;-66
2022/04/22 09:58:36;;;;;;;;;;;;;;;11.53;58.54;99618.91;5032465;28;20346;-65
2022/04/22 10:01:06;;;;;;;;;;;;;;;11.48;58.63;99613.53;5031938;28;20398;-64
2022/04/22 10:03:32;;;;;;;;;;;;;;;11.51;58.70;99613.84;5014363;28;20036;-63
2022/04/22 10:05:58;;;;;;;;;;;;;;;11.59;59.04;99612.66;5030864;28;19932;-64
2022/04/22 10:08:25;;;;;;;;;;;;;;;11.79;58.09;99612.19;5031724;28;19964;-63
2022/04/22 10:10:52;;;;;;;;;;;;;;;11.94;58.00;99612.50;5030972;28;20039;-64
2022/04/22 10:13:18;;;;;;;;;;;;;;;12.08;57.15;99604.19;5032072;28;19925;-62
2022/04/22 10:15:44;;;;;;;;;;;;;;;12.09;56.82;99609.28;5031885;28;19937;-61
2022/04/22 10:18:11;;;;;;;;;;;;;;;12.10;57.12;99610.88;5030823;28;19951;-62
2022/04/22 10:20:37;;;;;;;;;;;;;;;12.20;56.09;99613.69;5015016;28;19960;-63
2022/04/22 10:23:03;;;;;;;;;;;;;;;12.29;56.22;99598.13;5032186;28;19933;-61
2022/04/22 10:25:29;;;;;;;;;;;;;;;12.35;56.26;99605.13;5028946;28;19924;-62
2022/04/22 10:27:57;;;;;;;;;;;;;;;12.51;55.60;99600.88;5029768;28;19975;-62
2022/04/22 10:30:22;;;;;;;;;;;;;;;12.58;55.18;99600.69;5029739;28;19925;-60
2022/04/22 10:32:48;;;;;;;;;;;;;;;12.63;55.79;99596.25;5022291;28;19952;-64
2022/04/22 10:35:14;;;;;;;;;;;;;;;12.77;55.03;99596.69;5027210;28;19975;-65
2022/04/22 10:37:41;;;;;;;;;;;;;;;12.95;54.15;99585.75;5025685;28;19983;-63
2022/04/22 10:40:16;;;;;;;;;;;;;;;13.13;53.62;99586.50;5008924;28;19925;-65
2022/04/22 10:42:42;;;;;;;;;;;;;;;13.33;53.26;99584.06;5010473;28;20405;-62
2022/04/22 10:47:55;;;;;;;;;;;;;;;13.57;52.47;99581.13;5011625;28;19929;-64
2022/04/22 10:50:24;;;;;;;;;;;;;;;13.63;52.12;99577.44;5028212;28;19925;-64
2022/04/22 10:53:01;;;;;;;;;;;;;;;13.61;52.46;99579.53;5028571;28;20372;-64
2022/04/22 10:55:30;;;;;;;;;;;;;;;13.69;51.67;99578.28;5029455;28;19925;-65
2022/04/22 10:58:15;;;;;;;;;;;;;;;13.72;51.64;99581.25;5010977;28;19935;-64
2022/04/22 11:00:44;;;;;;;;;;;;;;;13.71;52.04;99573.53;5029714;28;19929;-63
2022/04/22 11:03:10;;;;;;;;;;;;;;;13.76;51.82;99579.66;5029617;28;20333;-63
2022/04/22 11:05:37;;;;;;;;;;;;;;;13.75;52.12;99579.94;5029658;28;20024;-61
2022/04/22 11:08:06;;;;;;;;;;;;;;;13.72;52.00;99570.59;5029765;28;20153;-62
2022/04/22 11:10:44;;;;;;;;;;;;;;;13.72;51.89;99569.78;5030165;28;19925;-61
2022/04/22 11:13:16;;;;;;;;;;;;;;;13.64;52.08;99566.53;5029646;28;19967;-61
2022/04/22 11:15:42;;;;;;;;;;;;;;;13.38;52.04;99572.66;5028392;28;19931;-60
2022/04/22 11:18:08;;;;;;;;;;;;;;;13.40;52.83;99573.22;5029242;28;19929;-60
2022/04/22 11:20:44;;;;;;;;;;;;;;;13.38;52.21;99562.84;5027869;28;20051;-62
2022/04/22 11:23:13;;;;;;;;;;;;;;;13.25;52.87;99560.56;5029710;28;20334;-61
2022/04/22 11:25:40;;;;;;;;;;;;;;;13.22;52.81;99558.38;5011606;28;19987;-61
2022/04/22 11:28:05;;;;;;;;;;;;;;;13.23;52.57;99557.31;5029220;28;20391;-61
2022/04/22 11:30:32;;;;;;;;;;;;;;;13.17;52.92;99553.78;5010718;28;20093;-63
2022/04/22 11:33:08;;;;;;;;;;;;;;;13.12;52.83;99548.44;4991906;28;19965;-62
2022/04/22 11:35:33;;;;;;;;;;;;;;;13.12;53.03;99551.09;5029162;28;19929;-63
2022/04/22 11:38:04;;;;;;;;;;;;;;;13.16;53.05;99554.03;5029145;28;19971;-61
2022/04/22 11:40:32;;;;;;;;;;;;;;;13.11;52.80;99556.66;5028231;28;19925;-62
2022/04/22 11:43:04;;;;;;;;;;;;;;;13.11;53.00;99549.47;5028007;28;20235;-63
2022/04/22 11:45:30;;;;;;;;;;;;;;;13.03;53.23;99551.75;5028041;28;20016;-62
2022/04/22 11:47:55;;;;;;;;;;;;;;;12.80;54.12;99548.31;5028112;28;20027;-60
2022/04/22 11:50:22;;;;;;;;;;;;;;;12.67;54.68;99544.16;5027552;28;20033;-60
2022/04/22 11:52:56;;;;;;;;;;;;;;;12.76;54.58;99543.72;5029188;28;19952;-62
2022/04/22 11:55:22;;;;;;;;;;;;;;;12.64;54.94;99544.66;5028392;28;19925;-62
2022/04/22 11:57:48;;;;;;;;;;;;;;;12.67;54.63;99535.38;5009005;28;19929;-63
2022/04/22 12:05:42;;;;;;;;;;;;;;;12.58;55.10;99535.00;5029745;28;19925;-64
2022/04/22 12:08:10;;;;;;;;;;;;;;;12.43;55.30;99532.97;5028732;28;19937;-64
2022/04/22 12:10:36;;;;;;;;;;;;;;;12.43;55.61;99527.63;5026601;28;19939;-64
2022/04/22 12:13:03;;;;;;;;;;;;;;;12.43;55.58;99530.28;5027920;28;20027;-63
2022/04/22 12:15:28;;;;;;;;;;;;;;;12.57;55.33;99527.28;5029825;28;20396;-62
2022/04/22 12:17:54;;;;;;;;;;;;;;;12.59;55.09;99528.66;5030073;28;20027;-63
2022/04/22 12:20:20;;;;;;;;;;;;;;;12.61;54.94;99523.88;5030421;28;19925;-65
2022/04/22 12:22:51;;;;;;;;;;;;;;;12.63;54.89;99527.09;5012019;28;19951;-63
2022/04/22 12:25:19;;;;;;;;;;;;;;;12.63;54.91;99523.63;5030069;28;19968;-64
2022/04/22 12:28:06;;;;;;;;;;;;;;;12.61;54.95;99523.06;5026888;28;19929;-65
2022/04/22 12:30:38;;;;;;;;;;;;;;;12.60;54.96;99516.16;5028496;28;20015;-66
2022/04/22 12:33:08;;;;;;;;;;;;;;;12.64;54.67;99518.06;5028905;28;20024;-62
2022/04/22 12:35:33;;;;;;;;;;;;;;;12.62;54.89;99516.72;5025922;28;20398;-63
2022/04/22 12:38:09;;;;;;;;;;;;;;;12.39;55.05;99513.25;5027428;28;19929;-63
2022/04/22 12:40:48;;;;;;;;;;;;;;;12.08;56.25;99509.34;4982821;28;19925;-62
2022/04/22 12:43:31;;;;;;;;;;;;;;;12.14;56.48;99507.56;5032945;28;20359;-64
2022/04/22 12:52:11;;;;;;;;;;;;;;;12.27;55.82;99508.03;5000901;28;19929;-62
2022/04/22 12:54:37;;;;;;;;;;;;;;;12.31;55.86;99505.69;5015715;28;20012;-65
2022/04/22 12:57:06;;;;;;;;;;;;;;;12.31;55.79;99500.38;5030546;28;19935;-63
2022/04/22 12:59:41;;;;;;;;;;;;;;;12.28;56.18;99495.53;5032729;28;20355;-63
2022/04/22 13:02:07;;;;;;;;;;;;;;;12.23;56.21;99498.13;5031215;28;20409;-62
2022/04/22 13:04:32;;;;;;;;;;;;;;;12.24;56.38;99497.09;5031906;28;19947;-64
2022/04/22 13:07:05;;;;;;;;;;;;;;;12.22;56.43;99497.31;5014445;28;20414;-62
2022/04/22 13:09:32;;;;;;;;;;;;;;;12.05;56.61;99494.69;5030613;28;19929;-64
2022/04/22 13:11:59;;;;;;;;;;;;;;;12.00;56.66;99502.63;5029477;28;19925;-61
2022/04/22 13:14:24;;;;;;;;;;;;;;;11.95;56.81;99499.88;5029874;28;19933;-63
2022/04/22 13:16:50;;;;;;;;;;;;;;;11.98;56.69;99496.72;5030946;28;19929;-62
2022/04/22 13:19:15;;;;;;;;;;;;;;;12.01;56.79;99490.94;5031653;28;19970;-65
2022/04/22 13:21:41;;;;;;;;;;;;;;;11.98;57.13;99486.09;5031336;28;19925;-62
2022/04/22 13:24:06;;;;;;;;;;;;;;;12.00;56.67;99489.31;5031707;28;19932;-61
2022/04/22 13:26:32;;;;;;;;;;;;;;;11.96;57.15;99482.06;5031400;28;20342;-61
2022/04/22 13:28:57;;;;;;;;;;;;;;;12.00;56.91;99485.84;5030738;28;19929;-64
2022/04/22 13:31:23;;;;;;;;;;;;;;;11.95;56.94;99483.94;5029760;28;20286;-63
2022/04/22 13:33:49;;;;;;;;;;;;;;;11.92;57.04;99484.41;4998514;28;19933;-63
2022/04/22 13:36:16;;;;;;;;;;;;;;;11.88;57.39;99477.16;5031839;28;20454;-64
2022/04/22 13:38:43;;;;;;;;;;;;;;;11.83;57.68;99475.22;5031811;28;19929;-62
2022/04/22 13:41:09;;;;;;;;;;;;;;;11.83;57.48;99478.69;5032504;28;19925;-62
2022/04/22 13:43:35;;;;;;;;;;;;;;;11.83;57.51;99468.06;5032990;28;19929;-64
2022/04/22 13:54:14;;;;;;;;;;;;;;;11.72;57.90;99466.28;5031006;28;20044;-61
2022/04/22 13:56:39;;;;;;;;;;;;;;;11.71;58.10;99475.31;5031527;28;20027;-64
2022/04/22 13:59:05;;;;;;;;;;;;;;;11.68;58.36;99462.53;5033320;28;19975;-61
2022/04/22 14:01:30;;;;;;;;;;;;;;;11.72;58.36;99468.16;5030745;28;20019;-62